Time;durP1;ratioP1;P1;durP2;ratioP2;P2;SDS_P1;SDS_P2;PMS_P1;PMS_P2;Temp;Humidity;BMP_temperature;BMP_pressure;BME280_temperature;BME280_humidity;BME280_pressure;Samples;Min_cycle;Max_cycle;Signal;HPM_P1;HPM_P2
2021/07/05 00:02:11;;;;;;;0.00;0.00;;;23.50;83.60;;;;;;4208672;28;20101;-46
2021/07/05 00:04:32;;;;;;;0.30;0.30;;;23.40;82.60;;;;;;4207262;28;20494;-48
2021/07/05 00:06:56;;;;;;;0.10;0.10;;;23.50;82.70;;;;;;4203363;28;20101;-45
2021/07/05 00:09:18;;;;;;;0.75;0.75;;;23.50;82.70;;;;;;4192882;28;20059;-45
2021/07/05 00:11:40;;;;;;;0.10;0.10;;;23.40;83.50;;;;;;4204105;28;20155;-57
2021/07/05 00:14:02;;;;;;;0.00;0.00;;;23.40;82.70;;;;;;4203233;28;20048;-46
2021/07/05 00:16:24;;;;;;;0.00;0.00;;;23.40;82.70;;;;;;4208246;28;20052;-47
2021/07/05 00:18:46;;;;;;;0.40;0.32;;;23.40;82.70;;;;;;4207713;28;20698;-47
2021/07/05 00:21:09;;;;;;;0.00;0.00;;;23.40;82.70;;;;;;4207704;28;20063;-48
2021/07/05 00:23:32;;;;;;;0.00;0.00;;;23.40;82.70;;;;;;4198988;28;20044;-46
2021/07/05 00:25:55;;;;;;;0.00;0.00;;;23.40;82.70;;;;;;4206287;28;20050;-48
2021/07/05 00:28:17;;;;;;;0.00;0.00;;;23.40;82.70;;;;;;4193445;28;20040;-45
2021/07/05 00:30:41;;;;;;;0.17;0.17;;;23.40;82.70;;;;;;4207776;28;20822;-48
2021/07/05 00:33:03;;;;;;;0.10;0.10;;;23.40;82.70;;;;;;4207588;28;20052;-49
2021/07/05 00:35:27;;;;;;;0.10;0.10;;;23.40;82.70;;;;;;4207540;28;20482;-48
2021/07/05 00:37:50;;;;;;;0.75;0.75;;;23.40;82.70;;;;;;4202464;28;20048;-46
2021/07/05 00:40:16;;;;;;;0.40;0.40;;;23.40;82.70;;;;;;4207711;28;20078;-48
2021/07/05 00:42:38;;;;;;;0.00;0.00;;;23.40;82.80;;;;;;4207819;28;20063;-50
2021/07/05 00:45:01;;;;;;;0.00;0.00;;;23.40;82.80;;;;;;4199702;28;20448;-49
2021/07/05 00:47:23;;;;;;;0.20;0.10;;;23.40;82.70;;;;;;4207986;28;20125;-45
2021/07/05 00:49:45;;;;;;;0.00;0.00;;;23.30;82.70;;;;;;4204072;28;20036;-48
2021/07/05 00:52:08;;;;;;;0.08;0.08;;;23.40;82.70;;;;;;4196459;28;20557;-47
2021/07/05 00:54:30;;;;;;;0.52;0.52;;;23.30;82.70;;;;;;4206330;28;20476;-47
2021/07/05 00:56:54;;;;;;;0.03;0.03;;;23.30;82.70;;;;;;4207707;28;20058;-49
2021/07/05 00:59:17;;;;;;;0.10;0.10;;;23.30;82.70;;;;;;4210248;28;20486;-48
2021/07/05 01:01:39;;;;;;;0.00;0.00;;;23.30;82.70;;;;;;4201908;28;20059;-47
2021/07/05 01:04:01;;;;;;;0.00;0.00;;;23.30;82.70;;;;;;4210493;28;20510;-47
2021/07/05 01:06:24;;;;;;;0.25;0.25;;;23.30;82.80;;;;;;4199270;28;20062;-52
2021/07/05 01:08:45;;;;;;;0.10;0.10;;;23.30;82.80;;;;;;4210930;28;20134;-51
2021/07/05 01:11:08;;;;;;;0.25;0.15;;;23.30;82.90;;;;;;4210093;28;20082;-47
2021/07/05 01:13:31;;;;;;;0.08;0.08;;;23.30;82.90;;;;;;4210502;28;20126;-46
2021/07/05 01:15:54;;;;;;;0.13;0.13;;;23.30;82.90;;;;;;4210833;28;20055;-45
2021/07/05 01:18:16;;;;;;;0.32;0.32;;;23.30;83.00;;;;;;4210650;28;20555;-48
2021/07/05 01:20:40;;;;;;;0.20;0.20;;;23.30;83.10;;;;;;4209573;28;20044;-49
2021/07/05 01:23:07;;;;;;;0.13;0.13;;;23.30;83.20;;;;;;4210455;28;20066;-50
2021/07/05 01:25:31;;;;;;;0.00;0.00;;;23.30;83.20;;;;;;4210215;28;20048;-50
2021/07/05 01:27:54;;;;;;;0.22;0.22;;;23.30;83.30;;;;;;4210470;28;20087;-47
2021/07/05 01:30:19;;;;;;;0.10;0.10;;;23.30;83.30;;;;;;4208711;28;20052;-46
2021/07/05 01:32:41;;;;;;;0.60;0.60;;;23.30;83.40;;;;;;4210162;28;20051;-47
2021/07/05 01:35:04;;;;;;;0.10;0.10;;;23.30;83.40;;;;;;4210322;28;20060;-47
2021/07/05 01:37:26;;;;;;;0.00;0.00;;;23.30;83.50;;;;;;4210396;28;20051;-51
2021/07/05 01:39:49;;;;;;;1.10;1.08;;;23.30;83.40;;;;;;4196982;28;20044;-47
2021/07/05 01:42:11;;;;;;;0.00;0.00;;;23.30;83.40;;;;;;4210259;28;20050;-46
2021/07/05 01:44:34;;;;;;;0.00;0.00;;;23.30;83.50;;;;;;4210116;28;20520;-47
2021/07/05 01:46:56;;;;;;;0.10;0.10;;;23.30;83.50;;;;;;4210433;28;20040;-46
2021/07/05 01:49:19;;;;;;;0.00;0.00;;;23.30;83.50;;;;;;4209933;28;20860;-47
2021/07/05 01:51:41;;;;;;;0.25;0.25;;;23.20;83.50;;;;;;4193723;28;20079;-45
2021/07/05 01:54:03;;;;;;;0.00;0.00;;;23.20;83.50;;;;;;4205545;28;20129;-47
2021/07/05 01:56:27;;;;;;;0.08;0.08;;;23.20;83.60;;;;;;4193250;28;20051;-48
2021/07/05 01:58:49;;;;;;;0.30;0.30;;;23.20;83.60;;;;;;4202966;28;20071;-47
2021/07/05 02:01:12;;;;;;;0.00;0.00;;;23.20;83.60;;;;;;4210242;28;20079;-47
2021/07/05 02:03:34;;;;;;;0.20;0.20;;;23.20;83.60;;;;;;4209505;28;20044;-48
2021/07/05 02:05:57;;;;;;;0.13;0.13;;;23.20;83.70;;;;;;4201872;28;20557;-47
2021/07/05 02:08:19;;;;;;;0.00;0.00;;;23.20;83.70;;;;;;4210034;28;20048;-46
2021/07/05 02:10:43;;;;;;;0.00;0.00;;;23.20;83.70;;;;;;4206198;28;20044;-47
2021/07/05 02:13:10;;;;;;;0.30;0.30;;;23.20;83.70;;;;;;4201915;28;20072;-46
2021/07/05 02:15:32;;;;;;;0.00;0.00;;;23.20;83.80;;;;;;4209779;28;20146;-46
2021/07/05 02:17:55;;;;;;;1.45;0.40;;;23.20;83.70;;;;;;4209835;28;20173;-45
2021/07/05 02:20:20;;;;;;;0.10;0.10;;;23.20;83.80;;;;;;4209268;28;20040;-49
2021/07/05 02:22:42;;;;;;;1.48;0.98;;;23.20;83.70;;;;;;4208735;28;20059;-48
2021/07/05 02:25:07;;;;;;;0.17;0.17;;;23.20;83.80;;;;;;4209602;28;20497;-48
2021/07/05 02:27:29;;;;;;;0.00;0.00;;;23.20;83.80;;;;;;4209663;28;20058;-47
2021/07/05 02:29:53;;;;;;;0.00;0.00;;;23.20;83.90;;;;;;4209189;28;20063;-47
2021/07/05 02:32:15;;;;;;;0.00;0.00;;;23.20;83.90;;;;;;4209544;28;20055;-46
2021/07/05 02:34:37;;;;;;;0.00;0.00;;;23.10;83.80;;;;;;4209651;28;20133;-46
2021/07/05 02:36:59;;;;;;;0.00;0.00;;;23.20;84.00;;;;;;4207226;28;20147;-49
2021/07/05 02:39:21;;;;;;;0.00;0.00;;;23.10;83.90;;;;;;4208943;28;20117;-45
2021/07/05 02:41:43;;;;;;;0.03;0.03;;;23.20;84.00;;;;;;4205915;28;20052;-45
2021/07/05 02:44:05;;;;;;;0.10;0.10;;;23.10;83.90;;;;;;4204226;28;20506;-48
2021/07/05 02:46:29;;;;;;;0.63;0.63;;;23.10;83.90;;;;;;4191120;28;20099;-46
2021/07/05 02:48:51;;;;;;;0.00;0.00;;;23.10;83.90;;;;;;4203093;28;20422;-48
2021/07/05 02:51:13;;;;;;;0.00;0.00;;;23.10;83.90;;;;;;4200463;28;20430;-49
2021/07/05 02:53:36;;;;;;;0.10;0.10;;;23.10;84.00;;;;;;4200861;28;20670;-47
2021/07/05 02:55:59;;;;;;;0.00;0.00;;;23.10;83.90;;;;;;4208897;28;20639;-47
2021/07/05 02:58:21;;;;;;;0.47;0.47;;;23.10;83.90;;;;;;4209057;28;20048;-46
2021/07/05 03:00:45;;;;;;;0.10;0.10;;;23.10;84.10;;;;;;4209007;28;20052;-48
2021/07/05 03:03:09;;;;;;;0.03;0.03;;;23.10;84.00;;;;;;4207316;28;20091;-50
2021/07/05 03:05:32;;;;;;;0.05;0.05;;;23.10;84.10;;;;;;4205904;28;20131;-47
2021/07/05 03:07:54;;;;;;;0.00;0.00;;;23.10;84.00;;;;;;4208503;28;20048;-46
2021/07/05 03:10:18;;;;;;;1.08;1.08;;;23.10;84.00;;;;;;4208793;28;20101;-47
2021/07/05 03:12:41;;;;;;;0.00;0.00;;;23.10;84.00;;;;;;4208946;28;20121;-48
2021/07/05 03:15:04;;;;;;;0.00;0.00;;;23.10;84.00;;;;;;4208948;28;20056;-49
2021/07/05 03:17:33;;;;;;;0.10;0.10;;;23.10;84.00;;;;;;4207251;28;20150;-46
2021/07/05 03:19:56;;;;;;;0.25;0.25;;;23.10;84.00;;;;;;4197281;28;20043;-47
2021/07/05 03:22:18;;;;;;;0.00;0.00;;;23.10;84.00;;;;;;4191528;28;20106;-48
2021/07/05 03:24:41;;;;;;;0.00;0.00;;;23.00;84.10;;;;;;4207087;28;20040;-47
2021/07/05 03:27:04;;;;;;;0.00;0.00;;;23.00;84.00;;;;;;4198576;28;20529;-46
2021/07/05 03:29:26;;;;;;;0.00;0.00;;;23.00;84.00;;;;;;4208889;28;20044;-46
2021/07/05 03:31:48;;;;;;;0.05;0.05;;;23.00;84.00;;;;;;4208323;28;20766;-47
2021/07/05 03:34:10;;;;;;;0.13;0.13;;;23.00;84.00;;;;;;4208989;28;20687;-49
2021/07/05 03:36:34;;;;;;;0.05;0.05;;;23.00;84.10;;;;;;4192082;28;20032;-45
2021/07/05 03:38:56;;;;;;;0.10;0.10;;;23.00;84.90;;;;;;4191766;28;20059;-46
2021/07/05 03:41:18;;;;;;;0.30;0.30;;;23.00;84.00;;;;;;4199726;28;20105;-45
2021/07/05 03:43:41;;;;;;;0.65;0.65;;;23.00;84.10;;;;;;4191851;28;20071;-47
2021/07/05 03:46:05;;;;;;;0.20;0.20;;;23.00;84.10;;;;;;4192190;28;20052;-48
2021/07/05 03:48:27;;;;;;;0.00;0.00;;;23.00;84.10;;;;;;4191786;28;20082;-47
2021/07/05 03:50:49;;;;;;;0.10;0.10;;;23.00;84.10;;;;;;4203782;28;20464;-49
2021/07/05 03:53:13;;;;;;;0.00;0.00;;;23.00;84.10;;;;;;4207935;28;20071;-48
2021/07/05 03:55:36;;;;;;;0.00;0.00;;;23.00;84.10;;;;;;4208196;28;20040;-47
2021/07/05 03:58:00;;;;;;;0.00;0.00;;;23.00;84.30;;;;;;4197417;28;20098;-49
2021/07/05 04:00:24;;;;;;;0.03;0.03;;;23.00;84.10;;;;;;4207387;28;20540;-46
2021/07/05 04:02:47;;;;;;;0.32;0.32;;;23.00;84.20;;;;;;4206363;28;20126;-48
2021/07/05 04:05:10;;;;;;;0.43;0.43;;;23.00;84.10;;;;;;4198374;28;20151;-48
2021/07/05 04:07:33;;;;;;;0.15;0.15;;;23.00;84.10;;;;;;4208110;28;20052;-50
2021/07/05 04:09:57;;;;;;;0.03;0.03;;;23.00;84.10;;;;;;4207977;28;20139;-46
2021/07/05 04:12:20;;;;;;;0.00;0.00;;;23.00;84.00;;;;;;4206791;28;20222;-48
2021/07/05 04:14:42;;;;;;;0.55;0.55;;;23.00;84.00;;;;;;4194452;28;20531;-46
2021/07/05 04:17:04;;;;;;;0.00;0.00;;;22.90;84.00;;;;;;4208249;28;20487;-46
2021/07/05 04:19:26;;;;;;;0.00;0.00;;;23.00;84.90;;;;;;4205395;28;20072;-45
2021/07/05 04:21:48;;;;;;;0.00;0.00;;;22.90;83.90;;;;;;4191362;28;20495;-51
2021/07/05 04:24:10;;;;;;;0.00;0.00;;;23.00;84.00;;;;;;4202576;28;20071;-48
2021/07/05 04:26:34;;;;;;;0.00;0.00;;;22.90;83.90;;;;;;4206207;28;20125;-46
2021/07/05 04:28:56;;;;;;;0.00;0.00;;;22.90;83.80;;;;;;4207416;28;20069;-48
2021/07/05 04:31:18;;;;;;;0.00;0.00;;;22.90;83.80;;;;;;4207793;28;20128;-52
2021/07/05 04:33:40;;;;;;;0.00;0.00;;;22.90;83.80;;;;;;4206623;28;20473;-50
2021/07/05 04:36:02;;;;;;;0.00;0.00;;;22.90;83.80;;;;;;4207696;28;20056;-47
2021/07/05 04:38:24;;;;;;;0.00;0.00;;;22.90;83.70;;;;;;4207632;28;20130;-50
2021/07/05 04:40:48;;;;;;;0.10;0.10;;;22.90;83.70;;;;;;4207711;28;20563;-48
2021/07/05 04:43:12;;;;;;;0.00;0.00;;;22.90;83.70;;;;;;4207047;28;20052;-50
2021/07/05 04:45:34;;;;;;;0.10;0.10;;;22.90;84.60;;;;;;4207685;28;20048;-48
2021/07/05 04:47:58;;;;;;;0.00;0.00;;;22.90;83.60;;;;;;4207434;28;20082;-47
2021/07/05 04:50:20;;;;;;;0.08;0.08;;;23.00;83.70;;;;;;4194888;28;20510;-50
2021/07/05 04:52:43;;;;;;;0.30;0.30;;;22.90;83.60;;;;;;4196587;28;20478;-48
2021/07/05 04:55:08;;;;;;;0.57;0.57;;;23.00;83.50;;;;;;4207320;28;20597;-45
2021/07/05 04:57:30;;;;;;;0.20;0.20;;;22.90;83.50;;;;;;4207464;28;20491;-48
2021/07/05 04:59:54;;;;;;;0.00;0.00;;;22.90;83.40;;;;;;4190559;28;20170;-47
2021/07/05 05:02:16;;;;;;;0.10;0.10;;;22.90;83.50;;;;;;4206834;28;20048;-48
2021/07/05 05:04:38;;;;;;;0.10;0.10;;;22.90;83.40;;;;;;4184043;28;20167;-45
2021/07/05 05:07:00;;;;;;;0.00;0.00;;;22.90;83.40;;;;;;4191816;28;20072;-50
2021/07/05 05:09:24;;;;;;;0.47;0.47;;;22.90;83.40;;;;;;4205806;28;20056;-53
2021/07/05 05:11:46;;;;;;;1.05;0.98;;;22.90;83.40;;;;;;4207053;27;20376;-50
2021/07/05 05:14:08;;;;;;;0.75;0.75;;;22.90;83.40;;;;;;4205964;28;20044;-46
2021/07/05 05:16:31;;;;;;;0.63;0.63;;;22.90;83.30;;;;;;4206697;28;20048;-45
2021/07/05 05:18:54;;;;;;;0.10;0.10;;;22.90;83.20;;;;;;4191835;28;20082;-46
2021/07/05 05:21:16;;;;;;;0.20;0.20;;;22.90;83.70;;;;;;4190739;28;20048;-45
2021/07/05 05:23:38;;;;;;;0.30;0.30;;;23.00;83.60;;;;;;4190795;28;20044;-44
2021/07/05 05:26:00;;;;;;;0.15;0.15;;;23.00;83.50;;;;;;4190668;28;20131;-50
2021/07/05 05:28:22;;;;;;;1.67;1.35;;;23.00;83.30;;;;;;4201244;28;21647;-48
2021/07/05 05:30:44;;;;;;;0.32;0.32;;;23.00;83.20;;;;;;4192138;28;20533;-47
2021/07/05 05:33:08;;;;;;;0.93;0.57;;;23.00;83.20;;;;;;4190536;28;20075;-48
2021/07/05 05:35:29;;;;;;;0.95;0.95;;;23.00;83.20;;;;;;4189469;28;20045;-46
2021/07/05 05:37:53;;;;;;;0.08;0.08;;;23.00;83.20;;;;;;4190243;28;20047;-47
2021/07/05 05:40:16;;;;;;;0.20;0.20;;;23.00;83.20;;;;;;4199447;28;20052;-47
2021/07/05 05:42:38;;;;;;;0.45;0.45;;;23.00;83.10;;;;;;4199126;28;20093;-47
2021/07/05 05:45:00;;;;;;;0.28;0.28;;;23.00;83.10;;;;;;4209011;28;20044;-46
2021/07/05 05:47:22;;;;;;;0.22;0.22;;;23.00;83.00;;;;;;4208584;28;20051;-47
2021/07/05 05:49:46;;;;;;;0.20;0.20;;;23.00;83.00;;;;;;4208241;28;20089;-48
2021/07/05 05:52:09;;;;;;;0.98;0.98;;;23.00;82.90;;;;;;4210384;28;20051;-49
2021/07/05 05:54:31;;;;;;;2.92;1.30;;;23.00;82.90;;;;;;4210477;28;20437;-47
2021/07/05 05:56:53;;;;;;;0.73;0.73;;;23.00;83.00;;;;;;4209852;28;20059;-48
2021/07/05 05:59:15;;;;;;;0.85;0.85;;;23.00;82.90;;;;;;4200822;28;20503;-49
2021/07/05 06:01:41;;;;;;;0.43;0.43;;;23.00;82.90;;;;;;4194608;28;20044;-48
2021/07/05 06:04:04;;;;;;;0.35;0.35;;;23.00;82.90;;;;;;4199659;28;20109;-51
2021/07/05 06:06:27;;;;;;;0.30;0.30;;;23.00;82.80;;;;;;4204550;28;20047;-50
2021/07/05 06:08:50;;;;;;;0.47;0.47;;;22.90;82.80;;;;;;4193353;28;20036;-46
2021/07/05 06:11:12;;;;;;;0.20;0.20;;;22.90;82.80;;;;;;4196974;28;20067;-49
2021/07/05 06:13:34;;;;;;;0.40;0.40;;;22.90;82.80;;;;;;4209773;28;20493;-47
2021/07/05 06:15:56;;;;;;;0.00;0.00;;;22.90;82.80;;;;;;4209442;28;20044;-47
2021/07/05 06:18:19;;;;;;;0.25;0.25;;;22.90;82.80;;;;;;4193104;28;20045;-49
2021/07/05 06:20:40;;;;;;;0.38;0.38;;;22.90;82.80;;;;;;4193213;28;20048;-47
2021/07/05 06:23:07;;;;;;;0.25;0.25;;;22.90;82.80;;;;;;4192588;28;20044;-49
2021/07/05 06:25:29;;;;;;;0.43;0.20;;;22.90;82.80;;;;;;4193268;28;20139;-47
2021/07/05 06:27:52;;;;;;;0.63;0.63;;;22.90;82.80;;;;;;4192687;28;20056;-46
2021/07/05 06:30:15;;;;;;;0.10;0.10;;;22.90;82.80;;;;;;4201636;28;20040;-47
2021/07/05 06:32:37;;;;;;;0.47;0.47;;;22.90;82.80;;;;;;4196185;28;20131;-47
2021/07/05 06:34:59;;;;;;;0.98;0.40;;;22.90;82.80;;;;;;4200898;28;20044;-46
2021/07/05 06:37:21;;;;;;;0.00;0.00;;;22.90;82.90;;;;;;4209197;28;20067;-46
2021/07/05 06:39:45;;;;;;;1.00;1.00;;;22.90;82.80;;;;;;4209187;28;20181;-45
2021/07/05 06:42:07;;;;;;;1.00;0.65;;;22.90;82.80;;;;;;4209473;28;20435;-48
2021/07/05 06:44:29;;;;;;;0.25;0.25;;;22.80;82.80;;;;;;4208965;28;20062;-50
2021/07/05 06:46:51;;;;;;;0.38;0.38;;;22.90;82.80;;;;;;4191797;28;20577;-47
2021/07/05 06:49:17;;;;;;;7.03;1.27;;;22.90;82.80;;;;;;4192662;28;20048;-48
2021/07/05 06:51:39;;;;;;;0.60;0.60;;;22.80;83.60;;;;;;4191360;28;20526;-49
2021/07/05 06:54:01;;;;;;;0.57;0.57;;;22.90;82.70;;;;;;4192801;28;20517;-48
2021/07/05 06:56:24;;;;;;;0.30;0.30;;;22.80;82.70;;;;;;4191070;28;20052;-48
2021/07/05 06:58:46;;;;;;;0.68;0.68;;;22.80;82.60;;;;;;4192652;28;20049;-49
2021/07/05 07:01:08;;;;;;;0.03;0.03;;;22.80;82.70;;;;;;4192680;28;20044;-48
2021/07/05 07:03:31;;;;;;;0.45;0.45;;;22.80;82.60;;;;;;4192927;28;20048;-51
2021/07/05 07:05:53;;;;;;;12.80;1.35;;;22.80;82.70;;;;;;4198876;28;20569;-47
2021/07/05 07:08:16;;;;;;;0.10;0.10;;;22.80;82.70;;;;;;4192192;28;20043;-49
2021/07/05 07:10:39;;;;;;;0.32;0.32;;;22.80;82.70;;;;;;4191981;28;20052;-52
2021/07/05 07:13:02;;;;;;;0.00;0.00;;;22.80;82.70;;;;;;4191994;28;20507;-47
2021/07/05 07:15:41;;;;;;;0.20;0.20;;;22.80;82.70;;;;;;4175450;28;20563;-51
2021/07/05 07:18:07;;;;;;;0.15;0.15;;;22.80;82.60;;;;;;4175791;28;20135;-47
2021/07/05 07:20:29;;;;;;;0.10;0.10;;;22.80;82.50;;;;;;4175308;28;20063;-45
2021/07/05 07:22:51;;;;;;;3.00;0.93;;;22.80;82.50;;;;;;4175523;28;20139;-45
2021/07/05 07:25:15;;;;;;;0.30;0.30;;;22.80;82.60;;;;;;4186122;28;20629;-46
2021/07/05 07:27:38;;;;;;;0.00;0.00;;;22.80;82.50;;;;;;4191602;28;20082;-49
2021/07/05 07:30:02;;;;;;;0.00;0.00;;;22.80;82.30;;;;;;4192043;28;20037;-45
2021/07/05 07:32:24;;;;;;;0.20;0.20;;;22.80;82.10;;;;;;4189774;28;20048;-46
2021/07/05 07:34:46;;;;;;;0.32;0.32;;;22.80;82.00;;;;;;4191795;28;20048;-48
2021/07/05 07:37:09;;;;;;;0.77;0.77;;;22.70;81.80;;;;;;4184212;28;20506;-46
2021/07/05 07:39:35;;;;;;;1.30;1.20;;;22.70;81.70;;;;;;4187000;28;20507;-48
2021/07/05 07:41:57;;;;;;;1.95;1.10;;;22.70;81.70;;;;;;4178241;28;20103;-47
2021/07/05 07:44:19;;;;;;;0.20;0.20;;;22.70;81.70;;;;;;4186839;28;20048;-46
2021/07/05 07:46:42;;;;;;;2.28;0.40;;;22.70;81.80;;;;;;4191144;28;20483;-50
2021/07/05 07:49:05;;;;;;;1.15;1.05;;;22.70;81.70;;;;;;4182256;28;20045;-46
2021/07/05 07:51:27;;;;;;;0.35;0.35;;;22.70;81.70;;;;;;4174942;28;20130;-44
2021/07/05 07:53:50;;;;;;;0.22;0.22;;;22.70;81.70;;;;;;4187363;28;20040;-45
2021/07/05 07:56:12;;;;;;;0.57;0.57;;;22.70;81.60;;;;;;4191482;28;20078;-46
2021/07/05 07:58:34;;;;;;;0.00;0.00;;;22.60;81.60;;;;;;4189220;28;20121;-47
2021/07/05 08:00:56;;;;;;;0.35;0.35;;;22.60;81.60;;;;;;4191078;28;20499;-49
2021/07/05 08:03:23;;;;;;;0.00;0.00;;;22.60;81.60;;;;;;4190149;28;20052;-45
2021/07/05 08:05:45;;;;;;;0.43;0.43;;;22.60;81.60;;;;;;4182566;28;20044;-49
2021/07/05 08:08:08;;;;;;;0.60;0.60;;;22.60;81.50;;;;;;4193426;28;20056;-46
2021/07/05 08:10:31;;;;;;;0.20;0.20;;;22.60;81.50;;;;;;4177562;28;20044;-49
2021/07/05 08:12:53;;;;;;;0.10;0.10;;;22.60;81.40;;;;;;4174425;28;20418;-46
2021/07/05 08:15:17;;;;;;;0.10;0.10;;;22.60;81.40;;;;;;4184123;28;20032;-47
2021/07/05 08:17:42;;;;;;;0.05;0.05;;;22.60;82.20;;;;;;4191825;28;20445;-49
2021/07/05 08:20:06;;;;;;;0.10;0.10;;;22.60;81.30;;;;;;4200647;28;20147;-49
2021/07/05 08:22:29;;;;;;;0.00;0.00;;;22.60;81.30;;;;;;4208092;28;20052;-50
2021/07/05 08:24:52;;;;;;;0.38;0.38;;;22.60;81.30;;;;;;4207315;27;20131;-48
2021/07/05 08:27:14;;;;;;;0.43;0.43;;;22.60;81.30;;;;;;4206978;27;20048;-50
2021/07/05 08:29:36;;;;;;;0.00;0.00;;;22.60;81.30;;;;;;4199497;28;20049;-45
2021/07/05 08:31:58;;;;;;;0.00;0.00;;;22.50;81.10;;;;;;4191268;28;20048;-47
2021/07/05 08:34:20;;;;;;;0.00;0.00;;;22.60;81.20;;;;;;4191928;28;20076;-46
2021/07/05 08:36:44;;;;;;;0.20;0.20;;;22.50;81.10;;;;;;4190642;28;20489;-45
2021/07/05 08:39:06;;;;;;;0.00;0.00;;;22.50;81.10;;;;;;4190668;28;20410;-46
2021/07/05 08:41:28;;;;;;;0.00;0.00;;;22.50;81.00;;;;;;4191114;28;20421;-48
2021/07/05 08:43:52;;;;;;;0.00;0.00;;;22.50;80.90;;;;;;4191454;28;20052;-46
2021/07/05 08:46:20;;;;;;;0.40;0.40;;;22.50;80.90;;;;;;4203316;28;20445;-46
2021/07/05 08:48:45;;;;;;;0.10;0.10;;;22.50;80.80;;;;;;4197610;28;20491;-49
2021/07/05 08:51:09;;;;;;;0.00;0.00;;;22.50;80.80;;;;;;4190233;28;20067;-48
2021/07/05 08:53:33;;;;;;;2.30;1.48;;;22.50;80.60;;;;;;4194418;27;20055;-46
2021/07/05 08:55:55;;;;;;;5.40;0.80;;;22.50;80.70;;;;;;4197011;28;20048;-44
2021/07/05 08:58:17;;;;;;;0.00;0.00;;;22.50;80.60;;;;;;4199002;28;20055;-45
2021/07/05 09:00:39;;;;;;;15.15;1.98;;;22.50;80.50;;;;;;4204064;28;20048;-50
2021/07/05 09:03:03;;;;;;;0.00;0.00;;;22.60;80.60;;;;;;4206018;28;20078;-51
2021/07/05 09:05:25;;;;;;;0.00;0.00;;;22.60;80.50;;;;;;4206114;28;20055;-50
2021/07/05 09:08:03;;;;;;;0.28;0.28;;;22.60;80.50;;;;;;4207169;28;20047;-45
2021/07/05 09:10:29;;;;;;;0.20;0.20;;;22.60;80.40;;;;;;4198502;28;20063;-48
2021/07/05 09:13:08;;;;;;;0.00;0.00;;;22.60;80.20;;;;;;4201462;28;20410;-47
2021/07/05 09:15:36;;;;;;;1.13;1.05;;;22.60;80.10;;;;;;4189987;28;20056;-46
2021/07/05 09:17:59;;;;;;;0.00;0.00;;;22.60;79.90;;;;;;4190589;28;20063;-47
2021/07/05 09:20:22;;;;;;;0.00;0.00;;;22.70;79.80;;;;;;4193058;28;20055;-48
2021/07/05 09:23:08;;;;;;;0.00;0.00;;;22.60;79.70;;;;;;4210540;28;20047;-47
2021/07/05 09:25:36;;;;;;;0.00;0.00;;;22.70;79.60;;;;;;4201893;28;20414;-48
2021/07/05 09:28:00;;;;;;;0.00;0.00;;;22.70;79.60;;;;;;4207543;28;20208;-46
2021/07/05 09:30:22;;;;;;;0.65;0.28;;;22.70;79.60;;;;;;4193883;28;20536;-48
2021/07/05 09:32:44;;;;;;;0.15;0.15;;;22.70;79.40;;;;;;4203132;28;20056;-45
2021/07/05 09:35:14;;;;;;;0.00;0.00;;;22.80;79.30;;;;;;4192994;28;20045;-47
2021/07/05 09:37:36;;;;;;;0.05;0.05;;;22.80;79.20;;;;;;4200112;28;20051;-49
2021/07/05 09:40:13;;;;;;;0.00;0.00;;;22.80;79.10;;;;;;4210330;28;20522;-46
2021/07/05 09:42:38;;;;;;;0.00;0.00;;;22.80;79.00;;;;;;4193031;28;20097;-47
2021/07/05 09:45:01;;;;;;;0.13;0.13;;;22.80;78.70;;;;;;4193220;28;20458;-47
2021/07/05 09:47:25;;;;;;;0.00;0.00;;;22.80;78.50;;;;;;4192455;28;20067;-49
2021/07/05 09:49:47;;;;;;;0.00;0.00;;;22.80;78.40;;;;;;4208929;28;20055;-49
2021/07/05 09:52:13;;;;;;;0.00;0.00;;;22.80;78.20;;;;;;4209770;28;20052;-45
2021/07/05 09:54:38;;;;;;;0.00;0.00;;;22.80;78.20;;;;;;4210256;28;20074;-50
2021/07/05 09:57:01;;;;;;;0.00;0.00;;;22.80;78.10;;;;;;4208043;28;20075;-48
2021/07/05 09:59:25;;;;;;;0.43;0.43;;;22.80;78.00;;;;;;4209558;28;20768;-47
2021/07/05 10:01:49;;;;;;;0.00;0.00;;;22.80;77.90;;;;;;4193150;28;20059;-50
2021/07/05 10:04:16;;;;;;;0.13;0.13;;;22.80;78.00;;;;;;4192532;28;20071;-48
2021/07/05 10:06:44;;;;;;;0.00;0.00;;;22.80;78.10;;;;;;4192774;28;20059;-46
2021/07/05 10:09:06;;;;;;;0.00;0.00;;;22.70;77.80;;;;;;4192730;28;20135;-46
2021/07/05 10:11:29;;;;;;;0.00;0.00;;;22.80;77.90;;;;;;4192952;28;20302;-49
2021/07/05 10:13:51;;;;;;;0.50;0.50;;;22.80;77.90;;;;;;4193216;28;20048;-46
2021/07/05 10:16:14;;;;;;;0.30;0.30;;;22.80;77.70;;;;;;4193312;28;20044;-47
2021/07/05 10:18:37;;;;;;;0.03;0.03;;;22.80;77.50;;;;;;4193727;28;20045;-49
2021/07/05 10:21:00;;;;;;;0.00;0.00;;;22.80;77.40;;;;;;4193338;28;20457;-49
2021/07/05 10:23:22;;;;;;;0.17;0.17;;;22.90;77.30;;;;;;4192737;28;20055;-51
2021/07/05 10:25:46;;;;;;;0.00;0.00;;;22.90;77.10;;;;;;4193064;28;20121;-50
2021/07/05 10:28:08;;;;;;;0.30;0.30;;;22.90;76.90;;;;;;4192244;28;20055;-48
2021/07/05 10:30:32;;;;;;;0.00;0.00;;;22.90;76.70;;;;;;4191804;28;20082;-47
2021/07/05 10:32:57;;;;;;;0.00;0.00;;;23.00;76.60;;;;;;4194144;28;20051;-45
2021/07/05 10:35:25;;;;;;;0.00;0.00;;;23.00;76.30;;;;;;4195256;28;20056;-46
2021/07/05 10:37:57;;;;;;;0.45;0.45;;;23.00;77.00;;;;;;4208812;28;20058;-47
2021/07/05 10:40:24;;;;;;;0.20;0.20;;;23.10;76.00;;;;;;4208928;28;20062;-51
2021/07/05 10:42:55;;;;;;;0.00;0.00;;;23.10;75.70;;;;;;4192626;28;20126;-46
2021/07/05 10:45:18;;;;;;;0.00;0.00;;;23.10;75.40;;;;;;4192571;28;20048;-48
2021/07/05 10:47:42;;;;;;;0.00;0.00;;;23.20;75.20;;;;;;4201884;28;20040;-46
2021/07/05 10:50:07;;;;;;;0.00;0.00;;;23.20;75.00;;;;;;4202400;28;20399;-49
2021/07/05 10:52:48;;;;;;;0.17;0.17;;;23.20;74.60;;;;;;4193492;28;20052;-47
2021/07/05 10:55:30;;;;;;;0.00;0.00;;;23.30;74.40;;;;;;4192564;28;20048;-48
2021/07/05 10:57:56;;;;;;;0.17;0.17;;;23.30;74.10;;;;;;4193436;28;20052;-49
2021/07/05 11:00:19;;;;;;;0.00;0.00;;;23.30;74.00;;;;;;4192733;28;20531;-48
2021/07/05 11:02:43;;;;;;;0.00;0.00;;;23.30;73.70;;;;;;4193796;28;20082;-51
2021/07/05 11:05:44;;;;;;;;;;;23.40;73.60;;;;;;4192654;28;20159;-50
2021/07/05 11:08:23;;;;;;;0.20;0.20;;;23.40;73.10;;;;;;4192061;28;19924;-49
2021/07/05 11:10:45;;;;;;;0.10;0.10;;;23.30;73.10;;;;;;4192090;28;20080;-46
2021/07/05 11:13:08;;;;;;;0.05;0.05;;;23.40;73.10;;;;;;4192232;28;20127;-47
2021/07/05 11:15:53;;;;;;;0.47;0.47;;;23.40;73.00;;;;;;4199337;28;20050;-46
2021/07/05 11:19:08;;;;;;;0.22;0.22;;;23.30;73.00;;;;;;4208365;28;20135;-47
2021/07/05 11:22:00;;;;;;;0.00;0.00;;;23.40;72.90;;;;;;4208286;28;20778;-46
2021/07/05 11:24:39;;;;;;;0.00;0.00;;;23.40;72.70;;;;;;4189389;28;20090;-49
2021/07/05 11:27:46;;;;;;;0.00;0.00;;;23.40;73.00;;;;;;4208854;28;20434;-47
2021/07/05 11:30:15;;;;;;;0.45;0.45;;;23.40;72.80;;;;;;4179949;28;20604;-47
2021/07/05 11:32:40;;;;;;;0.00;0.00;;;23.40;72.50;;;;;;4192261;28;20067;-47
2021/07/05 11:35:03;;;;;;;0.00;0.00;;;23.40;72.30;;;;;;4191692;28;20080;-49
2021/07/05 11:37:34;;;;;;;0.10;0.10;;;23.50;72.20;;;;;;4191966;28;20593;-46
2021/07/05 11:39:57;;;;;;;0.88;0.88;;;23.50;72.00;;;;;;4191724;28;20044;-47
2021/07/05 11:42:21;;;;;;;0.00;0.00;;;23.50;71.70;;;;;;4191507;28;20513;-47
2021/07/05 11:44:47;;;;;;;0.20;0.20;;;23.50;71.60;;;;;;4192982;28;20117;-46
2021/07/05 11:47:10;;;;;;;0.68;0.68;;;23.50;71.50;;;;;;4191488;28;20499;-47
2021/07/05 11:49:34;;;;;;;0.30;0.30;;;23.50;71.60;;;;;;4191871;28;20118;-46
2021/07/05 11:51:59;;;;;;;0.50;0.50;;;23.60;71.80;;;;;;4191583;28;20132;-47
2021/07/05 11:54:23;;;;;;;0.08;0.08;;;23.60;71.90;;;;;;4191703;28;20049;-49
2021/07/05 11:56:48;;;;;;;0.10;0.10;;;23.60;71.80;;;;;;4191529;28;20052;-50
2021/07/05 11:59:12;;;;;;;0.00;0.00;;;23.60;71.90;;;;;;4192691;28;20508;-48
2021/07/05 12:01:36;;;;;;;0.22;0.22;;;23.60;71.80;;;;;;4191490;28;20071;-48
2021/07/05 12:04:00;;;;;;;0.00;0.00;;;23.60;71.90;;;;;;4191589;28;20053;-48
2021/07/05 12:06:22;;;;;;;0.00;0.00;;;23.60;71.90;;;;;;4201817;28;20048;-51
2021/07/05 12:08:52;;;;;;;0.00;0.00;;;23.70;71.90;;;;;;4191292;28;20110;-48
2021/07/05 12:11:14;;;;;;;0.10;0.10;;;23.60;71.90;;;;;;4199434;28;20051;-46
2021/07/05 12:13:38;;;;;;;0.00;0.00;;;23.60;71.50;;;;;;4190999;28;20086;-48
2021/07/05 12:16:04;;;;;;;0.55;0.55;;;23.60;71.30;;;;;;4191160;28;20080;-49
2021/07/05 12:18:26;;;;;;;0.35;0.35;;;23.60;71.10;;;;;;4191384;28;20417;-49
2021/07/05 12:20:57;;;;;;;0.10;0.10;;;23.60;70.80;;;;;;4191206;28;20044;-48
2021/07/05 12:23:21;;;;;;;0.20;0.20;;;23.60;70.80;;;;;;4191001;28;20082;-51
2021/07/05 12:25:44;;;;;;;0.00;0.00;;;23.60;70.80;;;;;;4191177;28;20139;-49
2021/07/05 12:28:11;;;;;;;0.10;0.10;;;23.60;70.60;;;;;;4191135;28;20098;-48
2021/07/05 12:30:36;;;;;;;0.25;0.25;;;23.70;70.70;;;;;;4191143;28;20503;-49
2021/07/05 12:33:05;;;;;;;0.05;0.05;;;23.70;70.70;;;;;;4191190;28;20049;-47